Saugus, Massachusetts
Current Conditions -  °F | °C
As of 9:54 PM on Sunday 28 Dec 2014 (Local Time) from KBOS Reporting Station
Broken Clouds Broken Clouds  
Wind Chill: 36°   Ceiling: 25000
Heat Index: 42°   Visibility: 10mi
Dew Point: 29°   Wind: 12mph
Humidity: 60%   Direction: 290°WNW
Pressure: 29.95"   Gusts: NA
Location:  42.47°N, 71.01°W
Report Text: KBOS 290254Z 29010KT 10SM SCT170 BKN250 06/M02 A2995 RMK AO2 SLP141 T00561017 53018
Loading
Personal Weather Stations






























Interactive Weather Map New forecast layout! Learn more

10-Day Weather Forecast

Advertisements
Track Severe Weather on mobile